Time,TemperatureF,DewpointF,PressureIn,WindDirection,WindDirectionDegrees,WindSpeedMPH,WindSpeedGustMPH,Humidity,HourlyPrecipIn,Conditions,Clouds,dailyrainin,SoftwareType,DateUTC
2013-10-26 00:08:00,37.2,29.0,30.06,SSW,207,0.0,0.0,72,0.00,,,0.00,weatherlink.com 1.10,2013-10-26 04:08:00,
2013-10-26 00:23:00,36.8,29.0,30.06,SW,221,0.0,1.0,73,0.00,,,0.00,weatherlink.com 1.10,2013-10-26 04:23:00,
2013-10-26 00:38:00,36.8,29.0,30.06,SSW,194,0.0,1.0,73,0.00,,,0.00,weatherlink.com 1.10,2013-10-26 04:38:00,
2013-10-26 00:53:00,36.9,30.0,30.06,SSW,205,0.0,1.0,75,0.00,,,0.00,weatherlink.com 1.10,2013-10-26 04:53:00,
2013-10-26 01:08:00,36.6,29.0,30.07,SSW,208,1.0,1.0,75,0.00,,,0.00,weatherlink.com 1.10,2013-10-26 05:08:00,
2013-10-26 01:23:00,36.7,30.0,30.07,SW,217,0.0,2.0,76,0.00,,,0.00,weatherlink.com 1.10,2013-10-26 05:23:00,
2013-10-26 01:38:00,36.7,30.0,30.07,SW,221,0.0,1.0,76,0.00,,,0.00,weatherlink.com 1.10,2013-10-26 05:38:00,
2013-10-26 01:53:00,36.7,30.0,30.07,South,187,0.0,1.0,76,0.00,,,0.00,weatherlink.com 1.10,2013-10-26 05:53:00,
2013-10-26 02:08:00,36.4,30.0,30.07,South,181,0.0,1.0,76,0.00,,,0.00,weatherlink.com 1.10,2013-10-26 06:08:00,
2013-10-26 02:23:00,36.6,30.0,30.07,SW,214,0.0,1.0,76,0.00,,,0.00,weatherlink.com 1.10,2013-10-26 06:23:00,
2013-10-26 02:38:00,36.7,29.0,30.07,SSW,210,0.0,1.0,75,0.00,,,0.00,weatherlink.com 1.10,2013-10-26 06:38:00,
2013-10-26 02:53:00,36.8,30.0,30.07,SSW,212,0.0,1.0,76,0.00,,,0.00,weatherlink.com 1.10,2013-10-26 06:53:00,
2013-10-26 03:08:00,36.6,29.0,30.07,SSW,210,0.0,3.0,75,0.00,,,0.00,weatherlink.com 1.10,2013-10-26 07:08:00,
2013-10-26 03:23:00,36.6,29.0,30.07,South,174,0.0,2.0,74,0.00,,,0.00,weatherlink.com 1.10,2013-10-26 07:23:00,
2013-10-26 03:38:00,36.8,30.0,30.07,SSW,195,0.0,1.0,75,0.00,,,0.00,weatherlink.com 1.10,2013-10-26 07:38:00,
2013-10-26 03:53:00,36.7,30.0,30.07,SSW,201,0.0,0.0,76,0.00,,,0.00,weatherlink.com 1.10,2013-10-26 07:53:00,
2013-10-26 04:08:00,36.1,29.0,30.07,SSE,150,0.0,0.0,76,0.00,,,0.00,weatherlink.com 1.10,2013-10-26 08:08:00,
2013-10-26 04:23:00,36.2,29.0,30.07,SW,214,0.0,1.0,76,0.00,,,0.00,weatherlink.com 1.10,2013-10-26 08:23:00,
2013-10-26 04:38:00,36.1,29.0,30.08,SSW,212,0.0,0.0,75,0.00,,,0.00,weatherlink.com 1.10,2013-10-26 08:38:00,
2013-10-26 04:53:00,35.7,29.0,30.08,SSW,192,0.0,1.0,76,0.00,,,0.00,weatherlink.com 1.10,2013-10-26 08:53:00,
2013-10-26 05:08:00,35.6,29.0,30.09,South,190,0.0,1.0,77,0.00,,,0.00,weatherlink.com 1.10,2013-10-26 09:08:00,
2013-10-26 05:23:00,35.3,29.0,30.08,SSW,193,0.0,0.0,77,0.00,,,0.00,weatherlink.com 1.10,2013-10-26 09:23:00,
2013-10-26 05:38:00,34.9,29.0,30.08,SSW,205,0.0,0.0,79,0.00,,,0.00,weatherlink.com 1.10,2013-10-26 09:38:00,
2013-10-26 05:53:00,33.7,29.0,30.08,SSW,205,0.0,0.0,82,0.00,,,0.00,weatherlink.com 1.10,2013-10-26 09:53:00,
2013-10-26 06:09:00,33.8,30.0,30.08,SSW,205,0.0,0.0,85,0.00,,,0.00,weatherlink.com 1.10,2013-10-26 10:09:00,
2013-10-26 06:24:00,33.9,31.0,30.08,SSW,209,0.0,1.0,88,0.00,,,0.00,weatherlink.com 1.10,2013-10-26 10:24:00,
2013-10-26 06:39:00,33.0,30.0,30.08,SSW,211,0.0,1.0,88,0.00,,,0.00,weatherlink.com 1.10,2013-10-26 10:39:00,
2013-10-26 06:54:00,32.7,30.0,30.09,SSW,211,0.0,0.0,90,0.00,,,0.00,weatherlink.com 1.10,2013-10-26 10:54:00,
2013-10-26 07:09:00,32.4,30.0,30.09,SSW,211,0.0,1.0,91,0.00,,,0.00,weatherlink.com 1.10,2013-10-26 11:09:00,
2013-10-26 07:24:00,32.1,30.0,30.09,SW,214,0.0,1.0,91,0.00,,,0.00,weatherlink.com 1.10,2013-10-26 11:24:00,
2013-10-26 07:39:00,33.3,31.0,30.09,SSW,213,0.0,1.0,92,0.00,,,0.00,weatherlink.com 1.10,2013-10-26 11:39:00,
2013-10-26 07:54:00,36.3,34.0,30.09,SSW,192,0.0,1.0,92,0.00,,,0.00,weatherlink.com 1.10,2013-10-26 11:54:00,
2013-10-26 08:09:00,38.9,36.0,30.09,South,179,0.0,1.0,88,0.00,,,0.00,weatherlink.com 1.10,2013-10-26 12:09:00,
2013-10-26 08:24:00,39.9,36.0,30.09,SSE,167,0.0,1.0,85,0.00,,,0.00,weatherlink.com 1.10,2013-10-26 12:24:00,
2013-10-26 08:39:00,41.2,34.0,30.09,SE,144,1.0,4.0,75,0.00,,,0.00,weatherlink.com 1.10,2013-10-26 12:39:00,
2013-10-26 08:54:00,42.9,33.0,30.08,SE,141,0.0,3.0,69,0.00,,,0.00,weatherlink.com 1.10,2013-10-26 12:54:00,
2013-10-26 09:09:00,44.1,33.0,30.08,SSE,156,1.0,1.0,66,0.00,,,0.00,weatherlink.com 1.10,2013-10-26 13:09:00,
2013-10-26 09:24:00,44.3,33.0,30.08,SE,127,4.0,7.0,64,0.00,,,0.00,weatherlink.com 1.10,2013-10-26 13:24:00,
2013-10-26 09:39:00,44.5,34.0,30.07,ESE,113,9.0,10.0,66,0.00,,,0.00,weatherlink.com 1.10,2013-10-26 13:39:00,
2013-10-26 09:54:00,44.9,35.0,30.07,SE,146,5.0,10.0,69,0.00,,,0.00,weatherlink.com 1.10,2013-10-26 13:54:00,
2013-10-26 10:09:00,45.4,36.0,30.07,SE,136,10.0,12.0,70,0.00,,,0.00,weatherlink.com 1.10,2013-10-26 14:09:00,
2013-10-26 10:24:00,46.1,38.0,30.06,SE,145,8.0,14.0,72,0.00,,,0.00,weatherlink.com 1.10,2013-10-26 14:24:00,
2013-10-26 10:39:00,46.6,38.0,30.05,SE,127,11.0,16.0,72,0.00,,,0.00,weatherlink.com 1.10,2013-10-26 14:39:00,
2013-10-26 10:54:00,47.2,38.0,30.04,SE,131,11.0,16.0,71,0.00,,,0.00,weatherlink.com 1.10,2013-10-26 14:54:00,
2013-10-26 11:09:00,47.9,39.0,30.04,SE,134,13.0,16.0,71,0.00,,,0.00,weatherlink.com 1.10,2013-10-26 15:09:00,
2013-10-26 11:24:00,47.7,39.0,30.03,SE,132,6.0,20.0,73,0.00,,,0.00,weatherlink.com 1.10,2013-10-26 15:24:00,
2013-10-26 11:39:00,47.7,38.0,30.02,SSE,151,11.0,17.0,70,0.00,,,0.00,weatherlink.com 1.10,2013-10-26 15:39:00,
2013-10-26 11:54:00,48.4,39.0,30.02,SSE,156,10.0,18.0,70,0.00,,,0.00,weatherlink.com 1.10,2013-10-26 15:54:00,
2013-10-26 12:10:00,48.6,40.0,30.01,SSE,160,13.0,21.0,72,0.00,,,0.00,weatherlink.com 1.10,2013-10-26 16:10:00,
2013-10-26 12:25:00,48.8,40.0,30.00,SSE,153,19.0,21.0,71,0.00,,,0.00,weatherlink.com 1.10,2013-10-26 16:25:00,
2013-10-26 12:40:00,48.4,40.0,30.00,SSE,162,13.0,20.0,74,0.00,,,0.00,weatherlink.com 1.10,2013-10-26 16:40:00,
2013-10-26 12:55:00,48.5,41.0,29.99,South,170,16.0,21.0,74,0.00,,,0.00,weatherlink.com 1.10,2013-10-26 16:55:00,
2013-10-26 13:10:00,48.5,42.0,29.98,SSE,159,15.0,19.0,77,0.00,,,0.00,weatherlink.com 1.10,2013-10-26 17:10:00,
2013-10-26 13:25:00,48.9,41.0,29.98,SE,145,13.0,21.0,73,0.00,,,0.00,weatherlink.com 1.10,2013-10-26 17:25:00,
2013-10-26 13:40:00,48.7,40.0,29.97,SSE,148,15.0,22.0,72,0.00,,,0.00,weatherlink.com 1.10,2013-10-26 17:40:00,
2013-10-26 13:55:00,48.6,40.0,29.97,SSE,167,11.0,18.0,72,0.00,,,0.00,weatherlink.com 1.10,2013-10-26 17:55:00,
2013-10-26 14:10:00,48.7,40.0,29.96,SE,142,16.0,20.0,72,0.00,,,0.00,weatherlink.com 1.10,2013-10-26 18:10:00,
2013-10-26 14:25:00,48.6,40.0,29.96,SSE,150,11.0,13.0,72,0.00,,,0.00,weatherlink.com 1.10,2013-10-26 18:25:00,
2013-10-26 14:40:00,48.8,41.0,29.95,SE,139,10.0,16.0,75,0.00,,,0.00,weatherlink.com 1.10,2013-10-26 18:40:00,
2013-10-26 14:55:00,48.8,40.0,29.95,SE,139,9.0,17.0,71,0.00,,,0.00,weatherlink.com 1.10,2013-10-26 18:55:00,
2013-10-26 15:10:00,49.1,40.0,29.94,SSE,152,12.0,18.0,70,0.00,,,0.00,weatherlink.com 1.10,2013-10-26 19:10:00,
2013-10-26 15:25:00,49.4,36.0,29.95,SSE,150,10.0,17.0,61,0.00,,,0.00,weatherlink.com 1.10,2013-10-26 19:25:00,
2013-10-26 15:40:00,49.2,35.0,29.95,SSE,153,19.0,26.0,59,0.00,,,0.00,weatherlink.com 1.10,2013-10-26 19:40:00,
2013-10-26 15:55:00,47.8,35.0,29.95,South,174,5.0,20.0,62,0.00,,,0.00,weatherlink.com 1.10,2013-10-26 19:55:00,
2013-10-26 16:10:00,46.9,37.0,29.95,South,174,2.0,21.0,68,0.00,,,0.00,weatherlink.com 1.10,2013-10-26 20:10:00,
2013-10-26 16:25:00,46.0,39.0,29.95,South,170,3.0,18.0,75,0.00,,,0.00,weatherlink.com 1.10,2013-10-26 20:25:00,
2013-10-26 16:40:00,45.4,38.0,29.93,SSE,160,7.0,16.0,74,0.00,,,0.00,weatherlink.com 1.10,2013-10-26 20:40:00,
2013-10-26 16:55:00,45.4,36.0,29.92,SSE,167,2.0,5.0,71,0.00,,,0.00,weatherlink.com 1.10,2013-10-26 20:55:00,
2013-10-26 17:10:00,45.8,37.0,29.90,SSE,167,1.0,4.0,70,0.00,,,0.00,weatherlink.com 1.10,2013-10-26 21:10:00,
2013-10-26 17:25:00,45.9,37.0,29.89,SE,129,0.0,2.0,71,0.00,,,0.00,weatherlink.com 1.10,2013-10-26 21:25:00,
2013-10-26 17:40:00,45.3,38.0,29.89,South,184,0.0,0.0,75,0.00,,,0.00,weatherlink.com 1.10,2013-10-26 21:40:00,
2013-10-26 17:55:00,44.7,39.0,29.89,SSW,205,0.0,1.0,79,0.00,,,0.00,weatherlink.com 1.10,2013-10-26 21:55:00,
2013-10-26 18:10:00,44.5,38.0,29.88,SSE,167,0.0,2.0,78,0.00,,,0.00,weatherlink.com 1.10,2013-10-26 22:10:00,
2013-10-26 18:25:00,45.8,38.0,29.88,SSE,167,9.0,14.0,75,0.00,,,0.00,weatherlink.com 1.10,2013-10-26 22:25:00,
2013-10-26 18:40:00,50.0,38.0,29.88,South,173,10.0,17.0,64,0.00,,,0.00,weatherlink.com 1.10,2013-10-26 22:40:00,
2013-10-26 18:55:00,51.1,38.0,29.88,SE,131,8.0,13.0,61,0.00,,,0.00,weatherlink.com 1.10,2013-10-26 22:55:00,
2013-10-26 19:10:00,51.1,38.0,29.88,SE,129,10.0,13.0,62,0.00,,,0.00,weatherlink.com 1.10,2013-10-26 23:10:00,
2013-10-26 19:25:00,51.4,40.0,29.87,SE,132,9.0,15.0,66,0.00,,,0.00,weatherlink.com 1.10,2013-10-26 23:25:00,
2013-10-26 19:40:00,52.0,42.0,29.86,SE,146,15.0,20.0,70,0.00,,,0.00,weatherlink.com 1.10,2013-10-26 23:40:00,
2013-10-26 19:57:00,52.4,44.0,29.86,SSE,156,17.0,20.0,72,0.00,,,0.00,weatherlink.com 1.10,2013-10-26 23:57:00,
2013-10-26 20:11:00,52.4,40.0,29.86,SE,141,11.0,18.0,62,0.00,,,0.00,weatherlink.com 1.10,2013-10-27 00:11:00,
2013-10-26 20:26:00,52.4,40.0,29.86,SSE,166,13.0,18.0,62,0.00,,,0.00,weatherlink.com 1.10,2013-10-27 00:26:00,
2013-10-26 20:41:00,52.2,39.0,29.86,SSE,149,11.0,12.0,61,0.00,,,0.00,weatherlink.com 1.10,2013-10-27 00:41:00,
2013-10-26 20:56:00,52.0,37.0,29.86,SSE,155,8.0,15.0,58,0.00,,,0.00,weatherlink.com 1.10,2013-10-27 00:56:00,
2013-10-26 21:11:00,52.0,37.0,29.86,SSE,149,10.0,15.0,58,0.00,,,0.00,weatherlink.com 1.10,2013-10-27 01:11:00,
2013-10-26 21:26:00,52.0,36.0,29.86,WSW,240,4.0,18.0,55,0.00,,,0.00,weatherlink.com 1.10,2013-10-27 01:26:00,
2013-10-26 21:41:00,51.9,36.0,29.86,South,172,3.0,17.0,55,0.00,,,0.00,weatherlink.com 1.10,2013-10-27 01:41:00,
2013-10-26 21:56:00,51.7,36.0,29.86,South,170,4.0,16.0,55,0.00,,,0.00,weatherlink.com 1.10,2013-10-27 01:56:00,
2013-10-26 22:11:00,51.6,37.0,29.86,SSE,149,12.0,16.0,58,0.00,,,0.00,weatherlink.com 1.10,2013-10-27 02:11:00,
2013-10-26 22:26:00,51.4,37.0,29.86,SE,139,8.0,16.0,58,0.00,,,0.00,weatherlink.com 1.10,2013-10-27 02:26:00,
2013-10-26 22:41:00,51.2,37.0,29.86,SE,131,3.0,11.0,59,0.00,,,0.00,weatherlink.com 1.10,2013-10-27 02:41:00,
2013-10-26 22:56:00,50.8,36.0,29.86,WSW,255,1.0,6.0,57,0.00,,,0.00,weatherlink.com 1.10,2013-10-27 02:56:00,
2013-10-26 23:11:00,49.8,36.0,29.86,WNW,290,4.0,7.0,59,0.00,,,0.00,weatherlink.com 1.10,2013-10-27 03:11:00,
2013-10-26 23:26:00,48.9,38.0,29.86,SW,217,1.0,7.0,65,0.00,,,0.00,weatherlink.com 1.10,2013-10-27 03:26:00,
2013-10-26 23:41:00,47.5,38.0,29.86,WSW,240,3.0,8.0,70,0.00,,,0.00,weatherlink.com 1.10,2013-10-27 03:41:00,
2013-10-26 23:56:00,46.8,39.0,29.86,WNW,302,3.0,8.0,74,0.00,,,0.00,weatherlink.com 1.10,2013-10-27 03:56:00,